createdAt,value
2022-10-19T00:01:19.680Z,80.86
2022-10-19T00:06:27.690Z,81.79
2022-10-19T00:08:59.804Z,81.26
2022-10-19T00:11:27.415Z,81.25
2022-10-19T00:13:55.563Z,80.42
2022-10-19T00:16:27.992Z,80.71
2022-10-19T00:18:59.116Z,80.98
2022-10-19T00:21:25.918Z,80.81
2022-10-19T00:23:52.734Z,81.30
2022-10-19T00:26:19.292Z,81.47
2022-10-19T00:28:46.038Z,82.24
2022-10-19T00:31:15.765Z,81.51
2022-10-19T00:33:43.460Z,81.76
2022-10-19T00:36:26.740Z,81.20
2022-10-19T00:38:54.711Z,81.33
2022-10-19T00:41:23.482Z,81.75
2022-10-19T00:43:58.744Z,81.78
2022-10-19T00:46:27.124Z,80.88
2022-10-19T00:48:59.399Z,81.16
2022-10-19T00:51:29.026Z,81.01
2022-10-19T00:53:56.990Z,81.71
2022-10-19T00:56:24.386Z,81.39
2022-10-19T00:58:50.994Z,81.04
2022-10-19T01:01:20.589Z,81.58
2022-10-19T01:03:47.804Z,81.72
2022-10-19T01:06:16.736Z,81.68
2022-10-19T01:08:43.520Z,81.23
2022-10-19T01:11:14.224Z,81.82
2022-10-19T01:13:53.050Z,81.20
2022-10-19T01:17:01.135Z,81.34
2022-10-19T01:19:53.466Z,81.39
2022-10-19T01:22:28.960Z,81.83
2022-10-19T01:25:56.688Z,81.89
2022-10-19T01:28:54.162Z,81.95
2022-10-19T01:31:58.058Z,81.72
2022-10-19T01:34:44.423Z,81.73
2022-10-19T01:37:35.757Z,81.45
2022-10-19T01:40:15.370Z,81.65
2022-10-19T01:43:00.621Z,81.63
2022-10-19T01:45:36.168Z,82.58
2022-10-19T01:48:13.985Z,82.03
2022-10-19T01:50:55.845Z,82.05
2022-10-19T01:53:25.509Z,81.61
2022-10-19T01:55:55.089Z,82.01
2022-10-19T01:58:30.404Z,82.17
2022-10-19T02:01:01.486Z,82.63
2022-10-19T02:03:28.993Z,81.73
2022-10-19T02:05:57.426Z,82.02
2022-10-19T02:08:31.912Z,82.18
2022-10-19T02:10:59.841Z,82.28
2022-10-19T02:13:28.015Z,82.52
2022-10-19T02:15:59.379Z,82.39
2022-10-19T02:18:32.860Z,82.41
2022-10-19T02:21:02.281Z,82.67
2022-10-19T02:23:28.839Z,82.32
2022-10-19T02:25:56.225Z,82.42
2022-10-19T02:28:28.322Z,82.72
2022-10-19T02:30:54.894Z,81.98
2022-10-19T02:33:21.861Z,82.30
2022-10-19T02:35:48.581Z,81.98
2022-10-19T02:38:19.820Z,82.08
2022-10-19T02:40:58.377Z,81.90
2022-10-19T02:43:26.899Z,82.61
2022-10-19T02:46:02.626Z,81.11
2022-10-19T02:48:31.795Z,81.45
2022-10-19T02:50:58.315Z,81.36
2022-10-19T02:53:24.877Z,82.04
2022-10-19T02:55:51.897Z,82.33
2022-10-19T02:58:18.448Z,81.85
2022-10-19T03:00:45.066Z,82.52
2022-10-19T03:03:11.669Z,81.96
2022-10-19T03:05:38.175Z,81.85
2022-10-19T03:08:05.041Z,81.75
2022-10-19T03:10:31.633Z,82.11
2022-10-19T03:12:58.747Z,82.00
2022-10-19T03:15:28.973Z,81.50
2022-10-19T03:17:56.610Z,82.06
2022-10-19T03:20:23.605Z,82.13
2022-10-19T03:22:50.488Z,81.72
2022-10-19T03:25:17.146Z,81.86
2022-10-19T03:27:43.674Z,81.62
2022-10-19T03:30:10.682Z,81.57
2022-10-19T03:32:37.257Z,81.93
2022-10-19T03:35:04.015Z,81.95
2022-10-19T03:37:30.510Z,81.74
2022-10-19T03:39:57.062Z,82.22
2022-10-19T03:42:23.643Z,82.56
2022-10-19T03:44:50.179Z,81.89
2022-10-19T03:47:16.766Z,81.79
2022-10-19T03:49:43.631Z,82.27
2022-10-19T03:52:10.336Z,81.26
2022-10-19T03:54:37.022Z,82.06
2022-10-19T03:57:03.609Z,82.19
2022-10-19T03:59:30.237Z,81.76
2022-10-19T04:01:56.792Z,81.77
2022-10-19T04:04:23.313Z,81.41
2022-10-19T04:06:50.619Z,82.07
2022-10-19T04:09:19.598Z,82.21
2022-10-19T04:11:46.470Z,82.46
2022-10-19T04:14:19.273Z,82.06
2022-10-19T04:16:53.861Z,81.85
2022-10-19T04:19:20.392Z,81.83
2022-10-19T04:21:48.953Z,82.51
2022-10-19T04:24:17.492Z,81.50
2022-10-19T04:26:46.755Z,81.54
2022-10-19T04:29:14.381Z,82.55
2022-10-19T04:31:41.020Z,82.99
2022-10-19T04:34:08.350Z,82.73
2022-10-19T04:36:35.168Z,81.99
2022-10-19T04:39:01.790Z,83.21
2022-10-19T04:41:28.366Z,81.92
2022-10-19T04:43:58.119Z,81.76
2022-10-19T04:46:25.846Z,82.16
2022-10-19T04:48:52.689Z,81.92
2022-10-19T04:51:20.286Z,82.08
2022-10-19T04:53:47.076Z,82.40
2022-10-19T04:56:22.380Z,82.80
2022-10-19T04:58:49.314Z,82.31
2022-10-19T05:01:18.974Z,83.07
2022-10-19T05:03:46.478Z,82.12
2022-10-19T05:06:14.370Z,82.61
2022-10-19T05:08:41.428Z,83.22
2022-10-19T05:11:12.111Z,81.82
2022-10-19T05:13:38.754Z,82.37
2022-10-19T05:16:07.004Z,82.95
2022-10-19T05:18:34.876Z,83.04
2022-10-19T05:21:06.748Z,82.44
2022-10-19T05:23:34.023Z,83.12
2022-10-19T05:26:12.553Z,82.85
2022-10-19T05:28:39.521Z,82.14
2022-10-19T05:31:15.028Z,82.70
2022-10-19T05:33:42.458Z,82.23
2022-10-19T05:36:13.475Z,82.47
2022-10-19T05:38:40.022Z,82.12
2022-10-19T05:41:06.825Z,81.80
2022-10-19T05:43:33.454Z,82.06
2022-10-19T05:46:07.949Z,82.31
2022-10-19T05:48:35.649Z,81.72
2022-10-19T05:51:05.276Z,82.32
2022-10-19T05:56:06.195Z,82.39
2022-10-19T05:58:33.275Z,82.55
2022-10-19T06:01:01.063Z,82.51
2022-10-19T06:03:28.438Z,83.15
2022-10-19T06:05:55.782Z,82.30
2022-10-19T06:08:23.758Z,82.93
2022-10-19T06:10:51.059Z,81.89
2022-10-19T06:13:19.415Z,82.79
2022-10-19T06:15:50.869Z,83.42
2022-10-19T06:18:17.417Z,82.76
2022-10-19T06:20:45.125Z,83.11
2022-10-19T06:23:11.616Z,82.30
2022-10-19T06:25:38.129Z,83.35
2022-10-19T06:28:04.829Z,82.99
2022-10-19T06:30:31.476Z,82.63
2022-10-19T06:32:59.128Z,82.42
2022-10-19T06:35:25.758Z,82.12
2022-10-19T06:37:52.286Z,82.57
2022-10-19T06:40:18.866Z,82.02
2022-10-19T06:42:45.618Z,82.20
2022-10-19T06:45:12.159Z,82.36
2022-10-19T06:47:38.891Z,82.79
2022-10-19T06:50:06.937Z,82.74
2022-10-19T06:52:35.010Z,83.10
2022-10-19T06:55:02.270Z,82.00
2022-10-19T06:57:28.891Z,82.48
2022-10-19T06:59:55.594Z,82.85
2022-10-19T07:02:22.742Z,82.47
2022-10-19T07:04:49.257Z,82.34
2022-10-19T07:07:16.006Z,82.12
2022-10-19T07:09:42.475Z,82.76
2022-10-19T07:12:10.777Z,83.18
2022-10-19T07:14:39.569Z,82.20
2022-10-19T07:17:07.697Z,82.93
2022-10-19T07:19:34.979Z,82.75
2022-10-19T07:22:01.878Z,82.20
2022-10-19T07:24:28.369Z,82.33
2022-10-19T07:26:55.287Z,82.66
2022-10-19T07:29:22.168Z,82.46
2022-10-19T07:31:48.714Z,82.06
2022-10-19T07:34:15.370Z,82.87
2022-10-19T07:36:45.426Z,83.22
2022-10-19T07:39:12.622Z,82.37
2022-10-19T07:41:39.719Z,82.64
2022-10-19T07:44:06.319Z,82.82
2022-10-19T07:46:33.821Z,83.64
2022-10-19T07:49:00.845Z,82.53
2022-10-19T07:53:59.392Z,83.87
2022-10-19T07:56:27.537Z,83.27
2022-10-19T07:58:56.534Z,82.58
2022-10-19T08:01:31.312Z,83.93
2022-10-19T08:04:55.446Z,82.86
2022-10-19T08:06:45.746Z,82.57
2022-10-19T08:09:27.805Z,83.25
2022-10-19T08:11:58.757Z,83.13
2022-10-19T08:14:25.945Z,83.25
2022-10-19T08:16:52.493Z,83.21
2022-10-19T08:19:19.142Z,83.88
2022-10-19T08:21:46.757Z,83.81
2022-10-19T08:24:15.940Z,83.08
2022-10-19T08:26:42.893Z,82.39
2022-10-19T08:29:18.080Z,82.97
2022-10-19T08:31:46.467Z,84.23
2022-10-19T08:34:13.750Z,84.05
2022-10-19T08:39:13.077Z,83.16
2022-10-19T08:42:01.124Z,83.75
2022-10-19T08:44:51.364Z,83.10
2022-10-19T08:47:31.155Z,84.43
2022-10-19T08:49:58.477Z,83.31
2022-10-19T08:52:34.184Z,83.95
2022-10-19T08:55:09.107Z,84.30
2022-10-19T08:57:57.229Z,83.30
2022-10-19T09:03:37.819Z,84.80
2022-10-19T09:06:26.190Z,83.11
2022-10-19T09:08:55.709Z,83.88
2022-10-19T09:11:30.178Z,83.38
2022-10-19T09:14:14.895Z,83.33
2022-10-19T09:16:42.275Z,83.92
2022-10-19T09:19:30.836Z,83.96
2022-10-19T09:22:06.397Z,82.98
2022-10-19T09:24:43.107Z,84.05
2022-10-19T09:27:34.585Z,83.07
2022-10-19T09:30:03.933Z,83.03
2022-10-19T09:32:36.700Z,83.09
2022-10-19T09:35:50.135Z,83.17
2022-10-19T09:38:16.816Z,83.28
2022-10-19T09:40:44.141Z,82.09
2022-10-19T09:43:21.572Z,81.96
2022-10-19T09:45:57.331Z,83.14
2022-10-19T09:48:33.398Z,82.05
2022-10-19T09:51:02.181Z,82.73
2022-10-19T09:53:30.048Z,82.05
2022-10-19T09:56:22.819Z,80.91
2022-10-19T09:58:51.531Z,81.49
2022-10-19T10:01:41.478Z,81.71
2022-10-19T10:04:17.809Z,81.71
2022-10-19T10:06:48.057Z,81.26
2022-10-19T10:09:22.189Z,81.70
2022-10-19T10:11:50.667Z,81.24
2022-10-19T10:14:25.237Z,81.98
2022-10-19T10:17:22.038Z,81.14
2022-10-19T10:19:57.666Z,79.95
2022-10-19T10:22:27.625Z,81.13
2022-10-19T10:24:56.020Z,80.34
2022-10-19T10:27:33.883Z,80.42
2022-10-19T10:30:07.139Z,80.37
2022-10-19T10:32:38.385Z,80.52
2022-10-19T10:35:16.338Z,80.01
2022-10-19T10:37:45.877Z,79.63
2022-10-19T10:40:31.484Z,79.87
2022-10-19T10:43:13.054Z,78.89
2022-10-19T10:45:49.472Z,79.53
2022-10-19T10:48:50.345Z,78.21
2022-10-19T10:51:25.018Z,78.58
2022-10-19T10:53:51.756Z,78.76
2022-10-19T10:56:23.207Z,77.13
2022-10-19T10:58:59.275Z,78.01
2022-10-19T11:01:35.533Z,77.64
2022-10-19T11:04:12.292Z,76.70
2022-10-19T11:06:45.741Z,75.52
2022-10-19T11:09:25.882Z,75.74
2022-10-19T11:11:55.988Z,75.27
2022-10-19T11:14:32.622Z,74.75
2022-10-19T11:17:06.017Z,74.25
2022-10-19T11:19:32.542Z,74.23
2022-10-19T11:22:08.080Z,73.35
2022-10-19T11:25:16.335Z,73.61
2022-10-19T11:27:55.106Z,74.07
2022-10-19T11:30:23.967Z,74.26
2022-10-19T11:33:23.753Z,73.32
2022-10-19T11:35:58.555Z,72.66
2022-10-19T11:38:59.005Z,73.33
2022-10-19T11:41:47.693Z,73.39
2022-10-19T11:44:25.155Z,74.73
2022-10-19T11:47:30.536Z,73.50
2022-10-19T11:50:25.039Z,73.59
2022-10-19T11:52:53.552Z,72.94
2022-10-19T11:55:38.336Z,72.98
2022-10-19T11:58:20.765Z,71.62
2022-10-19T12:01:00.989Z,71.87
2022-10-19T12:03:52.545Z,71.90
2022-10-19T12:06:31.789Z,71.98
2022-10-19T12:09:24.598Z,72.01
2022-10-19T12:12:09.864Z,71.60
2022-10-19T12:14:40.921Z,72.01
2022-10-19T12:17:18.529Z,72.34
2022-10-19T12:19:50.841Z,72.10
2022-10-19T12:22:22.312Z,72.17
2022-10-19T12:24:50.832Z,71.95
2022-10-19T12:27:24.468Z,71.67
2022-10-19T12:29:52.297Z,72.05
2022-10-19T12:32:23.702Z,72.53
2022-10-19T12:34:59.156Z,71.89
2022-10-19T12:37:40.914Z,72.53
2022-10-19T12:40:25.616Z,72.10
2022-10-19T12:43:02.192Z,71.73
2022-10-19T12:45:32.676Z,72.50
2022-10-19T12:48:08.129Z,73.14
2022-10-19T12:50:50.142Z,72.35
2022-10-19T12:53:24.157Z,73.53
2022-10-19T12:56:05.009Z,73.99
2022-10-19T12:58:41.549Z,73.58
2022-10-19T13:01:19.031Z,73.58
2022-10-19T13:03:46.992Z,74.33
2022-10-19T13:06:32.656Z,75.05
2022-10-19T13:09:05.776Z,73.86
2022-10-19T13:14:06.352Z,73.45
2022-10-19T13:16:40.164Z,73.44
2022-10-19T13:19:12.772Z,73.33
2022-10-19T13:21:53.190Z,73.51
2022-10-19T13:24:32.570Z,73.82
2022-10-19T13:27:04.851Z,73.74
2022-10-19T13:29:37.516Z,73.11
2022-10-19T13:32:33.455Z,73.92
2022-10-19T13:35:31.518Z,73.59
2022-10-19T13:38:16.145Z,73.55
2022-10-19T13:40:48.891Z,74.30
2022-10-19T13:43:21.805Z,73.62
2022-10-19T13:46:13.474Z,73.12
2022-10-19T13:49:01.448Z,73.83
2022-10-19T13:51:36.974Z,73.55
2022-10-19T13:54:35.662Z,73.50
2022-10-19T13:57:40.525Z,73.86
2022-10-19T14:00:25.040Z,73.93
2022-10-19T14:03:11.755Z,73.70
2022-10-19T14:05:58.651Z,73.14
2022-10-19T14:08:31.110Z,73.61
2022-10-19T14:11:05.329Z,73.50
2022-10-19T14:13:32.289Z,73.23
2022-10-19T14:16:02.740Z,73.69
2022-10-19T14:18:32.208Z,73.10
2022-10-19T14:21:09.586Z,73.38
2022-10-19T14:23:41.721Z,73.18
2022-10-19T14:26:20.249Z,73.44
2022-10-19T14:28:53.009Z,73.29
2022-10-19T14:31:23.941Z,73.05
2022-10-19T14:33:52.605Z,73.37
2022-10-19T14:36:22.442Z,72.87
2022-10-19T14:38:53.030Z,72.78
2022-10-19T14:41:19.719Z,72.57
2022-10-19T14:43:46.444Z,72.92
2022-10-19T14:46:15.596Z,73.19
2022-10-19T14:48:48.294Z,72.35
2022-10-19T14:51:21.507Z,72.77
2022-10-19T14:53:57.863Z,71.83
2022-10-19T14:56:48.046Z,71.31
2022-10-19T14:59:31.670Z,71.44
2022-10-19T15:02:01.053Z,71.30
2022-10-19T15:04:31.885Z,71.52
2022-10-19T15:07:02.097Z,72.08
2022-10-19T15:09:47.717Z,71.56
2022-10-19T15:12:19.411Z,71.85
2022-10-19T15:14:47.749Z,71.18
2022-10-19T15:17:33.030Z,70.74
2022-10-19T15:20:01.235Z,71.34
2022-10-19T15:22:31.046Z,71.60
2022-10-19T15:25:07.716Z,71.51
2022-10-19T15:27:36.519Z,71.74
2022-10-19T15:30:17.862Z,71.64
2022-10-19T15:32:46.652Z,71.64
2022-10-19T15:35:23.333Z,71.56
2022-10-19T15:37:50.757Z,71.48
2022-10-19T15:40:38.060Z,71.40
2022-10-19T15:43:29.468Z,71.00
2022-10-19T15:46:12.256Z,71.18
2022-10-19T15:48:41.758Z,71.86
2022-10-19T15:51:28.994Z,71.58
2022-10-19T15:53:58.172Z,71.54
2022-10-19T15:56:28.974Z,71.95
2022-10-19T15:58:57.422Z,71.74
2022-10-19T16:01:29.204Z,71.50
2022-10-19T16:03:56.097Z,71.75
2022-10-19T16:06:26.174Z,71.67
2022-10-19T16:08:54.055Z,72.18
2022-10-19T16:11:23.049Z,71.69
2022-10-19T16:13:49.938Z,71.46
2022-10-19T16:16:23.370Z,72.05
2022-10-19T16:18:50.474Z,71.85
2022-10-19T16:21:17.855Z,71.89
2022-10-19T16:23:44.421Z,72.23
2022-10-19T16:26:13.607Z,71.99
2022-10-19T16:28:40.326Z,71.81
2022-10-19T16:31:07.140Z,72.13
2022-10-19T16:33:33.680Z,71.87
2022-10-19T16:36:04.742Z,72.08
2022-10-19T16:38:31.278Z,71.28
2022-10-19T16:41:05.655Z,71.84
2022-10-19T16:43:32.772Z,71.66
2022-10-19T16:45:59.401Z,72.00
2022-10-19T16:48:25.981Z,72.17
2022-10-19T16:51:07.375Z,71.57
2022-10-19T16:53:36.949Z,71.66
2022-10-19T16:56:10.572Z,72.05
2022-10-19T16:58:37.589Z,71.43
2022-10-19T17:01:07.885Z,72.12
2022-10-19T17:03:34.718Z,71.72
2022-10-19T17:06:06.185Z,71.63
2022-10-19T17:08:36.979Z,71.59
2022-10-19T17:11:22.699Z,72.04
2022-10-19T17:13:52.447Z,72.39
2022-10-19T17:16:23.567Z,71.87
2022-10-19T17:18:52.286Z,71.72
2022-10-19T17:21:21.912Z,72.40
2022-10-19T17:23:52.777Z,71.84
2022-10-19T17:26:24.526Z,71.77
2022-10-19T17:28:51.176Z,72.63
2022-10-19T17:31:17.748Z,71.67
2022-10-19T17:33:44.489Z,71.69
2022-10-19T17:36:16.616Z,72.01
2022-10-19T17:38:43.126Z,71.73
2022-10-19T17:41:12.931Z,71.54
2022-10-19T17:43:44.105Z,71.95
2022-10-19T17:46:13.201Z,72.34
2022-10-19T17:48:41.930Z,71.25
2022-10-19T17:51:12.529Z,71.31
2022-10-19T17:53:41.228Z,72.19
2022-10-19T17:56:08.529Z,72.02
2022-10-19T17:58:39.048Z,71.54
2022-10-19T18:01:08.569Z,71.47
2022-10-19T18:03:37.087Z,71.20
2022-10-19T18:06:10.788Z,71.04
2022-10-19T18:08:40.952Z,72.10
2022-10-19T18:11:11.477Z,71.28
2022-10-19T18:16:10.239Z,72.18
2022-10-19T18:18:39.100Z,72.39
2022-10-19T18:23:35.125Z,71.61
2022-10-19T18:26:10.362Z,72.34
2022-10-19T18:28:37.623Z,71.56
2022-10-19T18:31:08.699Z,72.43
2022-10-19T18:33:36.162Z,72.84
2022-10-19T18:36:03.201Z,72.82
2022-10-19T18:38:29.762Z,73.47
2022-10-19T18:41:00.522Z,73.04
2022-10-19T18:43:27.109Z,73.34
2022-10-19T18:45:58.213Z,73.55
2022-10-19T18:48:26.573Z,73.63
2022-10-19T18:50:53.245Z,73.16
2022-10-19T18:53:19.844Z,73.73
2022-10-19T18:55:46.359Z,73.68
2022-10-19T18:58:12.875Z,72.44
2022-10-19T19:00:45.544Z,73.87
2022-10-19T19:03:12.421Z,73.12
2022-10-19T19:05:38.963Z,73.50
2022-10-19T19:08:05.556Z,74.24
2022-10-19T19:10:32.093Z,73.22
2022-10-19T19:12:58.672Z,73.17
2022-10-19T19:15:25.214Z,72.88
2022-10-19T19:18:32.324Z,73.79
2022-10-19T19:21:07.163Z,74.13
2022-10-19T19:23:57.419Z,74.41
2022-10-19T19:26:35.064Z,73.92
2022-10-19T19:29:02.461Z,74.46
2022-10-19T19:31:29.058Z,74.38
2022-10-19T19:33:56.246Z,74.57
2022-10-19T19:36:22.774Z,74.68
2022-10-19T19:38:51.057Z,74.68
2022-10-19T19:41:17.901Z,75.40
2022-10-19T19:43:44.535Z,74.85
2022-10-19T19:46:13.754Z,75.15
2022-10-19T19:48:42.263Z,75.12
2022-10-19T19:51:19.977Z,74.83
2022-10-19T19:53:48.383Z,75.20
2022-10-19T19:56:18.749Z,75.13
2022-10-19T19:58:45.453Z,75.55
2022-10-19T20:01:15.175Z,75.75
2022-10-19T20:03:42.686Z,75.35
2022-10-19T20:06:10.502Z,74.89
2022-10-19T20:08:37.878Z,74.56
2022-10-19T20:11:07.481Z,75.20
2022-10-19T20:13:35.104Z,75.22
2022-10-19T20:16:09.764Z,75.58
2022-10-19T20:18:40.789Z,75.28
2022-10-19T20:21:22.456Z,75.01
2022-10-19T20:24:01.848Z,75.43
2022-10-19T20:26:39.049Z,76.03
2022-10-19T20:29:17.407Z,75.86
2022-10-19T20:31:46.810Z,75.67
2022-10-19T20:34:23.170Z,76.32
2022-10-19T20:36:50.840Z,76.14
2022-10-19T20:39:17.510Z,76.19
2022-10-19T20:41:44.235Z,76.29
2022-10-19T20:44:10.866Z,75.70
2022-10-19T20:46:37.501Z,76.42
2022-10-19T20:49:04.690Z,76.35
2022-10-19T20:51:35.066Z,76.38
2022-10-19T20:54:03.568Z,76.43
2022-10-19T20:56:32.828Z,76.07
2022-10-19T20:59:12.701Z,76.58
2022-10-19T21:01:40.730Z,76.70
2022-10-19T21:04:09.762Z,76.37
2022-10-19T21:06:42.287Z,76.70
2022-10-19T21:09:10.055Z,76.70
2022-10-19T21:11:39.117Z,76.61
2022-10-19T21:14:11.603Z,76.71
2022-10-19T21:16:38.528Z,75.99
2022-10-19T21:19:08.436Z,76.70
2022-10-19T21:21:38.380Z,76.89
2022-10-19T21:24:08.113Z,76.50
2022-10-19T21:26:36.414Z,76.79
2022-10-19T21:29:04.987Z,76.25
2022-10-19T21:31:31.947Z,76.29
2022-10-19T21:34:05.020Z,77.20
2022-10-19T21:36:31.582Z,77.02
2022-10-19T21:38:58.269Z,76.61
2022-10-19T21:41:26.415Z,76.71
2022-10-19T21:43:55.086Z,76.69
2022-10-19T21:46:23.347Z,76.65
2022-10-19T21:48:50.902Z,76.69
2022-10-19T21:51:23.737Z,76.98
2022-10-19T21:53:50.613Z,77.06
2022-10-19T21:56:21.058Z,76.79
2022-10-19T21:58:50.050Z,77.69
2022-10-19T22:01:18.178Z,77.47
2022-10-19T22:03:48.100Z,77.16
2022-10-19T22:06:15.271Z,77.02
2022-10-19T22:08:46.454Z,77.50
2022-10-19T22:11:13.831Z,77.12
2022-10-19T22:13:41.430Z,77.38
2022-10-19T22:16:16.621Z,77.21
2022-10-19T22:18:43.784Z,77.73
2022-10-19T22:21:13.684Z,77.43
2022-10-19T22:23:42.330Z,77.12
2022-10-19T22:26:18.866Z,77.17
2022-10-19T22:28:45.798Z,77.57
2022-10-19T22:31:12.764Z,77.46
2022-10-19T22:33:40.045Z,77.53
2022-10-19T22:36:08.898Z,78.06
2022-10-19T22:38:36.036Z,77.52
2022-10-19T22:41:02.562Z,78.02
2022-10-19T22:43:29.167Z,78.26
2022-10-19T22:45:55.703Z,78.43
2022-10-19T22:48:22.298Z,78.55
2022-10-19T22:50:53.097Z,78.29
2022-10-19T22:53:21.025Z,78.62
2022-10-19T22:55:47.851Z,78.59
2022-10-19T22:58:14.422Z,79.40
2022-10-19T23:00:40.992Z,78.22
2022-10-19T23:03:07.557Z,79.24
2022-10-19T23:05:34.054Z,79.37
2022-10-19T23:08:00.592Z,79.51
2022-10-19T23:10:27.171Z,78.67
2022-10-19T23:12:54.753Z,78.60
2022-10-19T23:15:21.803Z,79.29
2022-10-19T23:17:48.387Z,80.41
2022-10-19T23:20:15.089Z,80.42
2022-10-19T23:22:41.902Z,80.09
2022-10-19T23:25:08.898Z,80.19
2022-10-19T23:27:35.805Z,81.47
2022-10-19T23:30:03.919Z,80.49
2022-10-19T23:32:30.535Z,81.11
2022-10-19T23:34:57.149Z,80.44
2022-10-19T23:37:23.716Z,80.89
2022-10-19T23:39:50.237Z,81.75
2022-10-19T23:42:16.788Z,81.42
2022-10-19T23:44:43.349Z,82.15
2022-10-19T23:47:09.884Z,81.62
2022-10-19T23:49:36.533Z,82.28
2022-10-19T23:52:03.157Z,82.90
2022-10-19T23:54:29.990Z,82.79
2022-10-19T23:56:56.605Z,83.17
2022-10-19T23:59:23.231Z,83.21
